Impacts METAR Board INFO
IDs:

KMCO - Orlando Intl, FL, US

Updated at: 1334 UTC 25 Feb 2018
Potential Impact None Slight Moderate High
Time25/01Z 25/02Z 25/03Z 25/04Z 25/05Z 25/06Z 25/07Z 25/08Z 25/09Z 25/10Z 25/11Z 25/12Z 25/13Z
VIS10 10 10 10 10 10 10 10 9 5 7 7 10
CIG-- -- -- -- -- -- -- -- -- -- -- -- 90
CoverFEWFEWFEWFEWFEWFEWFEWFEWFEWFEWFEWSCTBKN
FltCatVFRVFRVFRVFRVFRVFRVFRVFRVFRMVFRVFRVFRVFR
WX----------------MIFGBRBCFGBCFG--
WDir12013014015014013001401400000
WSpd12 9 8 6 5 5 0 5 4 0 0 0 0
WGst-- -- -- -- -- -- -- -- -- -- -- -- --
Raw hourly METARs
KMCO 250053Z 12012KT 10SM FEW060 FEW120 23/17 A3015 RMK AO2 SLP207 T02280172
KMCO 250153Z 13009KT 10SM FEW070 FEW100 22/18 A3016 RMK AO2 SLP211 T02170183
KMCO 250253Z 14008KT 10SM FEW070 21/19 A3016 RMK AO2 SLP213 T02110189 51007
KMCO 250353Z 15006KT 10SM FEW070 21/19 A3018 RMK AO2 SLP217 T02060189
KMCO 250453Z 14005KT 10SM FEW070 19/18 A3018 RMK AO2 SLP220 T01940183 402940172
KMCO 250553Z 13005KT 10SM FEW070 20/19 A3019 RMK AO2 SLP222 T02000189 10239 20194 51009
KMCO 250653Z 00000KT 10SM FEW080 19/19 A3019 RMK AO2 SLP222 T01940189
KMCO 250753Z 14005KT 10SM FEW014 FEW080 18/18 A3017 RMK AO2 SLP215 T01830183
KMCO 250853Z 14004KT 9SM MIFG FEW015 FEW080 18/18 A3016 RMK AO2 SLP211 T01830183 58011
KMCO 250953Z 00000KT 5SM BR FEW017 18/18 A3016 RMK AO2 SLP211 VIS SE 1 T01830183
KMCO 251053Z 00000KT 7SM BCFG FEW001 17/17 A3017 RMK AO2 SLP214 T01720172
KMCO 251153Z 00000KT 7SM R35L/2800VP6000FT BCFG SCT080 18/18 A3019 RMK AO2 SLP220 VIS E 1/4 T01780178 10200 20172 53009
KMCO 251253Z 00000KT 10SM BKN090 19/19 A3020 RMK AO2 SLP225 T01890189